createdAt,value
2018-06-02T00:00:35.494Z,99.90
2018-06-02T00:03:15.312Z,99.90
2018-06-02T00:05:51.864Z,99.90
2018-06-02T00:08:21.364Z,99.90
2018-06-02T00:10:50.865Z,99.90
2018-06-02T00:13:20.646Z,99.90
2018-06-02T00:15:53.868Z,99.90
2018-06-02T00:18:24.884Z,99.90
2018-06-02T00:20:59.577Z,99.90
2018-06-02T00:23:35.648Z,99.90
2018-06-02T00:26:05.708Z,99.90
2018-06-02T00:28:37.841Z,99.90
2018-06-02T00:31:14.925Z,99.90
2018-06-02T00:33:49.523Z,99.90
2018-06-02T00:36:21.506Z,99.90
2018-06-02T00:39:00.434Z,99.90
2018-06-02T00:41:33.624Z,99.90
2018-06-02T00:44:03.658Z,99.90
2018-06-02T00:46:37.227Z,99.90
2018-06-02T00:49:10.393Z,99.90
2018-06-02T00:51:44.642Z,99.90
2018-06-02T00:54:18.766Z,99.90
2018-06-02T00:56:52.263Z,99.90
2018-06-02T00:59:24.774Z,99.90
2018-06-02T01:01:55.182Z,99.90
2018-06-02T01:04:26.152Z,99.90
2018-06-02T01:06:57.326Z,99.90
2018-06-02T01:09:28.638Z,99.90
2018-06-02T01:11:59.498Z,99.90
2018-06-02T01:14:31.221Z,99.90
2018-06-02T01:17:04.006Z,99.90
2018-06-02T01:19:33.466Z,99.90
2018-06-02T01:22:06.405Z,99.90
2018-06-02T01:24:43.521Z,99.90
2018-06-02T01:27:13.167Z,99.90
2018-06-02T01:29:45.415Z,99.90
2018-06-02T01:32:14.899Z,99.90
2018-06-02T01:34:45.229Z,99.90
2018-06-02T01:37:15.377Z,99.90
2018-06-02T01:39:55.924Z,99.90
2018-06-02T01:42:33.732Z,99.90
2018-06-02T01:45:03.632Z,99.90
2018-06-02T01:47:33.205Z,99.90
2018-06-02T01:50:02.647Z,99.90
2018-06-02T01:52:32.119Z,99.90
2018-06-02T01:55:01.705Z,99.90
2018-06-02T01:57:31.773Z,99.90
2018-06-02T02:00:02.791Z,99.90
2018-06-02T02:02:36.889Z,99.90
2018-06-02T02:05:06.603Z,99.90
2018-06-02T02:07:36.116Z,99.90
2018-06-02T02:10:05.877Z,99.90
2018-06-02T02:12:35.983Z,99.90
2018-06-02T02:15:06.334Z,99.90
2018-06-02T02:17:37.949Z,99.90
2018-06-02T02:20:09.122Z,99.90
2018-06-02T02:22:44.662Z,99.90
2018-06-02T02:25:32.110Z,99.90
2018-06-02T02:28:07.236Z,99.90
2018-06-02T02:30:45.596Z,99.90
2018-06-02T02:33:17.564Z,99.90
2018-06-02T02:35:59.239Z,99.90
2018-06-02T02:38:36.157Z,99.90
2018-06-02T02:41:08.427Z,99.90
2018-06-02T02:43:54.263Z,99.90
2018-06-02T02:46:24.220Z,99.90
2018-06-02T02:48:54.662Z,99.90
2018-06-02T02:51:33.797Z,99.90
2018-06-02T02:54:15.385Z,99.90
2018-06-02T02:56:48.955Z,99.90
2018-06-02T02:59:19.334Z,99.90
2018-06-02T03:01:49.462Z,99.90
2018-06-02T03:04:20.318Z,99.90
2018-06-02T03:06:50.381Z,99.90
2018-06-02T03:09:20.006Z,99.90
2018-06-02T03:11:49.640Z,99.90
2018-06-02T03:14:19.234Z,99.90
2018-06-02T03:16:49.659Z,99.90
2018-06-02T03:19:19.853Z,99.90
2018-06-02T03:21:49.269Z,99.90
2018-06-02T03:24:18.995Z,99.90
2018-06-02T03:26:49.085Z,99.90
2018-06-02T03:29:19.085Z,99.90
2018-06-02T03:31:48.753Z,99.90
2018-06-02T03:34:18.682Z,99.90
2018-06-02T03:36:48.103Z,99.90
2018-06-02T03:39:17.952Z,99.90
2018-06-02T03:41:47.378Z,99.90
2018-06-02T03:44:17.900Z,99.90
2018-06-02T03:46:48.349Z,99.90
2018-06-02T03:49:17.789Z,99.90
2018-06-02T03:51:47.030Z,99.90
2018-06-02T03:54:16.585Z,99.90
2018-06-02T03:56:46.543Z,99.90
2018-06-02T03:59:16.063Z,99.90
2018-06-02T04:01:47.679Z,99.90
2018-06-02T04:04:17.376Z,99.90
2018-06-02T04:06:47.090Z,99.90
2018-06-02T04:09:17.440Z,99.90
2018-06-02T04:11:46.819Z,99.90
2018-06-02T04:14:16.253Z,99.90
2018-06-02T04:16:45.664Z,99.90
2018-06-02T04:19:15.724Z,99.90
2018-06-02T04:21:45.481Z,99.90
2018-06-02T04:24:15.724Z,99.90
2018-06-02T04:26:46.639Z,99.90
2018-06-02T04:29:16.658Z,99.90
2018-06-02T04:31:48.279Z,99.90
2018-06-02T04:34:17.691Z,99.90
2018-06-02T04:36:47.226Z,99.90
2018-06-02T04:39:17.345Z,99.90
2018-06-02T04:41:46.833Z,99.90
2018-06-02T04:44:16.587Z,99.90
2018-06-02T04:46:46.707Z,99.90
2018-06-02T04:49:16.916Z,99.90
2018-06-02T04:51:46.311Z,99.90
2018-06-02T04:54:18.232Z,99.90
2018-06-02T04:56:47.933Z,99.90
2018-06-02T04:59:17.376Z,99.90
2018-06-02T05:01:46.794Z,99.90
2018-06-02T05:04:16.508Z,99.90
2018-06-02T05:06:46.590Z,99.90
2018-06-02T05:09:16.606Z,99.90
2018-06-02T05:11:46.110Z,99.90
2018-06-02T05:14:15.647Z,99.90
2018-06-02T05:16:45.776Z,99.90
2018-06-02T05:19:15.518Z,99.90
2018-06-02T05:21:45.860Z,99.90
2018-06-02T05:24:15.581Z,99.90
2018-06-02T05:26:46.216Z,99.90
2018-06-02T05:29:15.829Z,99.90
2018-06-02T05:31:45.475Z,99.90
2018-06-02T05:34:15.576Z,99.90
2018-06-02T05:36:44.922Z,99.90
2018-06-02T05:39:14.224Z,99.90
2018-06-02T05:41:44.259Z,99.90
2018-06-02T05:44:13.607Z,99.90
2018-06-02T05:46:43.162Z,99.90
2018-06-02T05:49:12.669Z,99.90
2018-06-02T05:51:42.207Z,99.90
2018-06-02T05:54:11.680Z,99.90
2018-06-02T05:56:41.876Z,99.90
2018-06-02T05:59:11.936Z,99.90
2018-06-02T06:01:41.397Z,99.90
2018-06-02T06:04:11.598Z,99.90
2018-06-02T06:06:40.998Z,99.90
2018-06-02T06:09:10.507Z,99.90
2018-06-02T06:11:39.974Z,99.90
2018-06-02T06:14:09.878Z,99.90
2018-06-02T06:16:39.317Z,99.90
2018-06-02T06:19:09.732Z,99.90
2018-06-02T06:21:39.126Z,99.90
2018-06-02T06:24:08.537Z,99.90
2018-06-02T06:26:37.985Z,99.90
2018-06-02T06:29:08.238Z,99.90
2018-06-02T06:31:37.607Z,99.90
2018-06-02T06:34:07.846Z,99.90
2018-06-02T06:36:37.800Z,99.90
2018-06-02T06:39:07.281Z,99.90
2018-06-02T06:41:36.766Z,99.90
2018-06-02T06:44:07.490Z,99.90
2018-06-02T06:46:37.742Z,99.90
2018-06-02T06:49:07.555Z,99.90
2018-06-02T06:51:37.289Z,99.90
2018-06-02T06:54:07.977Z,99.90
2018-06-02T06:56:37.527Z,99.90
2018-06-02T06:59:07.163Z,99.90
2018-06-02T07:01:38.368Z,99.90
2018-06-02T07:04:08.638Z,99.90
2018-06-02T07:06:38.217Z,99.90
2018-06-02T07:09:07.722Z,99.90
2018-06-02T07:11:37.161Z,99.90
2018-06-02T07:14:06.726Z,99.90
2018-06-02T07:16:36.618Z,99.90
2018-06-02T07:19:06.016Z,99.90
2018-06-02T07:21:35.541Z,99.90
2018-06-02T07:24:05.035Z,99.90
2018-06-02T07:26:34.798Z,99.90
2018-06-02T07:29:04.297Z,99.90
2018-06-02T07:31:35.138Z,99.90
2018-06-02T07:34:04.772Z,99.90
2018-06-02T07:36:36.633Z,99.90
2018-06-02T07:39:07.358Z,99.90
2018-06-02T07:41:37.716Z,99.90
2018-06-02T07:44:07.802Z,99.90
2018-06-02T07:46:38.647Z,99.90
2018-06-02T07:49:09.249Z,99.90
2018-06-02T07:51:38.879Z,99.90
2018-06-02T07:54:10.018Z,99.90
2018-06-02T07:56:40.648Z,99.90
2018-06-02T07:59:10.874Z,99.90
2018-06-02T08:01:41.211Z,99.90
2018-06-02T08:04:11.284Z,99.90
2018-06-02T08:06:41.306Z,99.90
2018-06-02T08:09:12.178Z,99.90
2018-06-02T08:11:42.597Z,99.90
2018-06-02T08:14:13.316Z,99.90
2018-06-02T08:16:44.279Z,99.90
2018-06-02T08:19:14.769Z,99.90
2018-06-02T08:21:44.331Z,99.90
2018-06-02T08:24:14.142Z,99.90
2018-06-02T08:26:51.920Z,99.90
2018-06-02T08:29:34.669Z,99.90
2018-06-02T08:32:06.632Z,99.90
2018-06-02T08:34:37.521Z,99.70
2018-06-02T08:37:11.369Z,99.70
2018-06-02T08:39:44.368Z,99.50
2018-06-02T08:42:27.234Z,99.10
2018-06-02T08:44:56.980Z,97.60
2018-06-02T08:47:35.767Z,97.80
2018-06-02T08:50:06.845Z,95.30
2018-06-02T08:52:36.445Z,93.20
2018-06-02T08:55:06.846Z,88.70
2018-06-02T08:57:36.491Z,88.70
2018-06-02T09:00:13.193Z,87.00
2018-06-02T09:02:44.450Z,90.30
2018-06-02T09:05:15.523Z,90.00
2018-06-02T09:07:45.221Z,84.50
2018-06-02T09:10:21.792Z,81.40
2018-06-02T09:12:51.445Z,82.30
2018-06-02T09:15:26.899Z,83.00
2018-06-02T09:17:57.670Z,81.20
2018-06-02T09:20:27.369Z,82.90
2018-06-02T09:23:12.678Z,86.10
2018-06-02T09:25:49.071Z,89.10
2018-06-02T09:28:32.623Z,89.10
2018-06-02T09:31:02.996Z,83.80
2018-06-02T09:33:33.161Z,86.50
2018-06-02T09:36:02.955Z,86.70
2018-06-02T09:38:34.219Z,86.30
2018-06-02T09:41:04.429Z,86.30
2018-06-02T09:43:33.923Z,90.20
2018-06-02T09:46:27.515Z,85.70
2018-06-02T09:49:12.222Z,85.30
2018-06-02T09:51:45.173Z,74.80
2018-06-02T09:54:14.860Z,65.80
2018-06-02T09:56:46.858Z,66.70
2018-06-02T09:59:16.378Z,71.90
2018-06-02T10:01:48.418Z,74.00
2018-06-02T10:04:21.419Z,72.90
2018-06-02T10:06:57.726Z,68.80
2018-06-02T10:09:36.697Z,65.70
2018-06-02T10:12:06.779Z,73.20
2018-06-02T10:14:37.501Z,80.40
2018-06-02T10:17:07.060Z,80.30
2018-06-02T10:19:36.609Z,78.00
2018-06-02T10:22:06.128Z,73.60
2018-06-02T10:24:35.495Z,62.90
2018-06-02T10:27:05.098Z,67.30
2018-06-02T10:29:34.651Z,72.20
2018-06-02T10:32:04.936Z,64.30
2018-06-02T10:34:34.522Z,64.10
2018-06-02T10:37:04.033Z,56.90
2018-06-02T10:39:33.521Z,59.00
2018-06-02T10:42:03.083Z,58.80
2018-06-02T10:44:33.002Z,54.50
2018-06-02T10:47:02.478Z,51.80
2018-06-02T10:49:32.941Z,51.30
2018-06-02T10:52:03.757Z,49.40
2018-06-02T10:54:39.196Z,49.30
2018-06-02T10:57:24.951Z,53.80
2018-06-02T11:00:03.855Z,55.60
2018-06-02T11:02:33.900Z,55.50
2018-06-02T11:05:03.610Z,59.10
2018-06-02T11:07:33.113Z,61.90
2018-06-02T11:10:04.379Z,58.30
2018-06-02T11:12:33.939Z,50.90
2018-06-02T11:15:14.829Z,57.70
2018-06-02T11:17:55.404Z,57.70
2018-06-02T11:20:25.209Z,63.50
2018-06-02T11:22:54.737Z,66.60
2018-06-02T11:25:24.256Z,58.90
2018-06-02T11:27:53.704Z,54.20
2018-06-02T11:30:28.622Z,54.60
2018-06-02T11:32:58.970Z,49.80
2018-06-02T11:35:28.506Z,49.80
2018-06-02T11:37:59.802Z,45.80
2018-06-02T11:40:30.226Z,51.40
2018-06-02T11:43:01.690Z,60.30
2018-06-02T11:45:32.169Z,66.90
2018-06-02T11:48:01.673Z,66.90
2018-06-02T11:50:31.469Z,60.90
2018-06-02T11:53:01.621Z,56.40
2018-06-02T11:55:36.703Z,52.20
2018-06-02T11:58:06.627Z,55.10
2018-06-02T12:00:37.336Z,55.40
2018-06-02T12:03:07.051Z,55.00
2018-06-02T12:05:37.391Z,56.40
2018-06-02T12:08:16.662Z,56.40
2018-06-02T12:10:53.363Z,54.90
2018-06-02T12:13:23.069Z,49.10
2018-06-02T12:15:52.785Z,47.30
2018-06-02T12:18:29.824Z,46.20
2018-06-02T12:21:07.502Z,46.60
2018-06-02T12:23:49.718Z,48.20
2018-06-02T12:26:34.744Z,48.20
2018-06-02T12:29:07.709Z,47.50
2018-06-02T12:31:38.617Z,48.80
2018-06-02T12:36:54.337Z,49.10
2018-06-02T12:39:27.592Z,47.80
2018-06-02T12:42:00.757Z,45.00
2018-06-02T12:44:38.273Z,43.60
2018-06-02T12:47:43.833Z,43.80
2018-06-02T12:50:36.017Z,43.60
2018-06-02T12:56:37.050Z,55.60
2018-06-02T12:59:10.801Z,55.60
2018-06-02T13:01:42.117Z,54.80
2018-06-02T13:04:11.659Z,49.90
2018-06-02T13:06:42.031Z,48.90
2018-06-02T13:09:11.801Z,48.80
2018-06-02T13:11:43.566Z,53.20
2018-06-02T13:14:13.180Z,53.20
2018-06-02T13:16:48.604Z,54.60
2018-06-02T13:19:19.738Z,53.50
2018-06-02T13:21:49.531Z,53.50
2018-06-02T13:24:19.216Z,56.70
2018-06-02T13:26:48.780Z,58.60
2018-06-02T13:29:18.353Z,57.20
2018-06-02T13:31:48.323Z,55.70
2018-06-02T13:34:20.813Z,56.20
2018-06-02T13:36:50.897Z,56.20
2018-06-02T13:39:21.614Z,58.10
2018-06-02T13:41:51.504Z,59.20
2018-06-02T13:44:23.825Z,58.40
2018-06-02T13:46:53.900Z,58.30
2018-06-02T13:49:24.931Z,57.50
2018-06-02T13:51:54.692Z,57.60
2018-06-02T13:54:25.090Z,61.40
2018-06-02T13:56:57.091Z,61.40
2018-06-02T13:59:27.022Z,61.00
2018-06-02T14:01:57.520Z,57.30
2018-06-02T14:04:27.078Z,57.40
2018-06-02T14:07:04.636Z,57.90
2018-06-02T14:09:35.033Z,58.80
2018-06-02T14:12:05.091Z,57.00
2018-06-02T14:14:36.651Z,56.70
2018-06-02T14:17:07.179Z,56.70
2018-06-02T14:19:37.573Z,56.70
2018-06-02T14:22:08.897Z,56.60
2018-06-02T14:24:38.694Z,59.90
2018-06-02T14:27:08.923Z,60.40
2018-06-02T14:29:39.504Z,62.40
2018-06-02T14:32:11.141Z,62.40
2018-06-02T14:35:05.881Z,63.30
2018-06-02T14:37:50.641Z,61.80
2018-06-02T14:40:21.162Z,62.60
2018-06-02T14:42:53.250Z,62.50
2018-06-02T14:45:23.420Z,62.50
2018-06-02T14:47:57.666Z,66.00
2018-06-02T14:50:27.489Z,65.90
2018-06-02T14:52:58.238Z,67.60
2018-06-02T14:55:28.296Z,67.60
2018-06-02T14:57:57.942Z,66.40
2018-06-02T15:00:32.860Z,66.50
2018-06-02T15:03:08.223Z,66.50
2018-06-02T15:05:38.198Z,64.40
2018-06-02T15:08:08.002Z,65.00
2018-06-02T15:10:37.961Z,66.10
2018-06-02T15:13:08.829Z,70.70
2018-06-02T15:15:42.026Z,70.70
2018-06-02T15:18:11.880Z,69.50
2018-06-02T15:20:41.956Z,69.30
2018-06-02T15:23:11.903Z,68.50
2018-06-02T15:25:43.809Z,68.00
2018-06-02T15:28:13.971Z,70.00
2018-06-02T15:30:43.761Z,71.70
2018-06-02T15:33:14.897Z,73.00
2018-06-02T15:35:44.764Z,73.00
2018-06-02T15:38:15.560Z,73.30
2018-06-02T15:40:44.972Z,73.00
2018-06-02T15:43:14.436Z,69.70
2018-06-02T15:45:47.528Z,73.40
2018-06-02T15:48:17.383Z,72.70
2018-06-02T15:50:47.121Z,73.30
2018-06-02T15:53:16.879Z,75.10
2018-06-02T15:55:47.496Z,75.90
2018-06-02T15:58:18.094Z,76.20
2018-06-02T16:00:48.725Z,76.20
2018-06-02T16:03:22.384Z,76.80
2018-06-02T16:05:53.456Z,76.30
2018-06-02T16:08:25.120Z,76.20
2018-06-02T16:10:55.091Z,75.80
2018-06-02T16:13:30.220Z,76.70
2018-06-02T16:16:07.821Z,76.50
2018-06-02T16:18:44.463Z,76.70
2018-06-02T16:21:14.127Z,76.60
2018-06-02T16:23:44.825Z,77.80
2018-06-02T16:26:15.549Z,78.70
2018-06-02T16:28:46.044Z,79.40
2018-06-02T16:31:16.774Z,79.40
2018-06-02T16:33:46.594Z,79.50
2018-06-02T16:36:17.481Z,80.10
2018-06-02T16:38:49.256Z,79.80
2018-06-02T16:41:21.894Z,80.10
2018-06-02T16:43:54.668Z,81.30
2018-06-02T16:46:24.891Z,81.20
2018-06-02T16:48:58.874Z,80.90
2018-06-02T16:51:29.222Z,81.10
2018-06-02T16:54:04.648Z,80.10
2018-06-02T16:56:36.058Z,80.10
2018-06-02T16:59:14.395Z,81.00
2018-06-02T17:02:29.368Z,79.50
2018-06-02T17:05:34.019Z,79.50
2018-06-02T17:08:19.963Z,79.10
2018-06-02T17:11:19.501Z,78.90
2018-06-02T17:14:25.069Z,80.70
2018-06-02T17:17:37.781Z,81.70
2018-06-02T17:23:56.855Z,82.20
2018-06-02T17:26:38.254Z,79.90
2018-06-02T17:29:15.133Z,79.80
2018-06-02T17:31:48.516Z,79.80
2018-06-02T17:34:45.338Z,81.20
2018-06-02T17:37:33.976Z,81.00
2018-06-02T17:40:12.956Z,80.60
2018-06-02T17:42:47.178Z,81.00
2018-06-02T17:45:22.753Z,81.80
2018-06-02T17:48:24.103Z,81.70
2018-06-02T18:08:13.844Z,83.70
2018-06-02T18:20:22.018Z,86.50
2018-06-02T18:30:16.127Z,87.00
2018-06-02T18:36:09.216Z,88.20
2018-06-02T18:39:02.068Z,88.40
2018-06-02T18:45:30.775Z,88.90
2018-06-02T18:48:28.955Z,88.90
2018-06-02T18:51:28.425Z,89.60
2018-06-02T18:57:09.452Z,89.40
2018-06-02T19:12:21.126Z,90.10
2018-06-02T19:25:02.943Z,90.40
2018-06-02T19:31:22.766Z,90.50
2018-06-02T19:47:25.104Z,91.30
2018-06-02T19:57:41.594Z,91.30
2018-06-02T20:03:12.762Z,90.80
2018-06-02T20:08:41.771Z,91.00
2018-06-02T20:11:25.068Z,91.20
2018-06-02T20:17:09.120Z,91.30
2018-06-02T20:23:14.181Z,91.90
2018-06-02T20:29:47.986Z,92.40
2018-06-02T20:51:52.265Z,93.80
2018-06-02T20:55:16.237Z,93.70
2018-06-02T21:15:28.331Z,95.20
2018-06-02T21:25:55.596Z,95.20
2018-06-02T22:00:04.065Z,95.90
2018-06-02T22:14:23.753Z,96.70
2018-06-02T22:17:36.475Z,96.70
2018-06-02T22:47:40.957Z,98.50
2018-06-02T23:11:40.819Z,99.80
2018-06-02T23:14:24.143Z,99.90
2018-06-02T23:20:44.982Z,99.90
2018-06-02T23:23:34.414Z,99.90
2018-06-02T23:26:15.244Z,99.90
2018-06-02T23:29:00.118Z,99.90
2018-06-02T23:31:34.094Z,99.90
2018-06-02T23:36:52.926Z,99.90
2018-06-02T23:39:51.424Z,99.90
2018-06-02T23:42:28.780Z,99.90
2018-06-02T23:45:00.555Z,99.90
2018-06-02T23:47:43.213Z,99.90
2018-06-02T23:50:21.078Z,99.90
2018-06-02T23:55:48.395Z,99.90
2018-06-02T23:59:03.662Z,99.90
